sensor_id;sensor_type;location;lat;lon;timestamp;P1;durP1;ratioP1;P2;durP2;ratioP2
37997;SDS011;24079;51.824;4.682;2023-09-19T00:00:37;8.10;;;2.22;;
37997;SDS011;24079;51.824;4.682;2023-09-19T00:03:04;16.17;;;2.63;;
37997;SDS011;24079;51.824;4.682;2023-09-19T00:05:35;12.68;;;2.75;;
37997;SDS011;24079;51.824;4.682;2023-09-19T00:08:02;11.52;;;1.92;;
37997;SDS011;24079;51.824;4.682;2023-09-19T00:10:30;9.68;;;2.40;;
37997;SDS011;24079;51.824;4.682;2023-09-19T00:12:57;7.50;;;2.20;;
37997;SDS011;24079;51.824;4.682;2023-09-19T00:15:31;10.23;;;2.45;;
37997;SDS011;24079;51.824;4.682;2023-09-19T00:18:06;8.75;;;2.10;;
37997;SDS011;24079;51.824;4.682;2023-09-19T00:20:32;8.00;;;2.05;;
37997;SDS011;24079;51.824;4.682;2023-09-19T00:23:01;10.10;;;2.33;;
37997;SDS011;24079;51.824;4.682;2023-09-19T00:25:34;13.52;;;2.45;;
37997;SDS011;24079;51.824;4.682;2023-09-19T00:28:06;12.90;;;2.60;;
37997;SDS011;24079;51.824;4.682;2023-09-19T00:30:33;11.75;;;2.28;;
37997;SDS011;24079;51.824;4.682;2023-09-19T00:33:00;8.18;;;2.53;;
37997;SDS011;24079;51.824;4.682;2023-09-19T00:35:27;9.05;;;2.10;;
37997;SDS011;24079;51.824;4.682;2023-09-19T00:37:53;7.13;;;2.50;;
37997;SDS011;24079;51.824;4.682;2023-09-19T00:40:21;9.77;;;2.97;;
37997;SDS011;24079;51.824;4.682;2023-09-19T00:42:48;10.65;;;3.00;;
37997;SDS011;24079;51.824;4.682;2023-09-19T00:45:16;9.23;;;2.58;;
37997;SDS011;24079;51.824;4.682;2023-09-19T00:47:44;13.80;;;2.67;;
37997;SDS011;24079;51.824;4.682;2023-09-19T00:50:11;8.57;;;2.40;;
37997;SDS011;24079;51.824;4.682;2023-09-19T00:52:40;13.80;;;2.85;;
37997;SDS011;24079;51.824;4.682;2023-09-19T00:55:08;11.57;;;2.50;;
37997;SDS011;24079;51.824;4.682;2023-09-19T00:57:36;12.05;;;3.20;;
37997;SDS011;24079;51.824;4.682;2023-09-19T01:00:04;11.80;;;3.03;;
37997;SDS011;24079;51.824;4.682;2023-09-19T01:02:37;12.48;;;2.05;;
37997;SDS011;24079;51.824;4.682;2023-09-19T01:05:04;13.52;;;3.28;;
37997;SDS011;24079;51.824;4.682;2023-09-19T01:07:31;13.77;;;2.78;;
37997;SDS011;24079;51.824;4.682;2023-09-19T01:10:04;13.70;;;2.95;;
37997;SDS011;24079;51.824;4.682;2023-09-19T01:21:05;14.10;;;2.90;;
37997;SDS011;24079;51.824;4.682;2023-09-19T01:29:46;19.33;;;2.85;;
37997;SDS011;24079;51.824;4.682;2023-09-19T01:32:18;23.90;;;3.30;;
37997;SDS011;24079;51.824;4.682;2023-09-19T01:37:14;14.05;;;3.28;;
37997;SDS011;24079;51.824;4.682;2023-09-19T01:39:45;17.07;;;3.57;;
37997;SDS011;24079;51.824;4.682;2023-09-19T01:42:19;21.63;;;3.65;;
37997;SDS011;24079;51.824;4.682;2023-09-19T01:45:09;17.88;;;3.47;;
37997;SDS011;24079;51.824;4.682;2023-09-19T01:47:48;12.55;;;3.03;;
37997;SDS011;24079;51.824;4.682;2023-09-19T01:55:56;17.42;;;2.75;;
37997;SDS011;24079;51.824;4.682;2023-09-19T01:58:37;17.55;;;3.40;;
37997;SDS011;24079;51.824;4.682;2023-09-19T02:01:11;19.27;;;3.30;;
37997;SDS011;24079;51.824;4.682;2023-09-19T02:03:40;18.33;;;3.35;;
37997;SDS011;24079;51.824;4.682;2023-09-19T02:06:07;14.73;;;3.28;;
37997;SDS011;24079;51.824;4.682;2023-09-19T02:08:36;14.30;;;2.88;;
37997;SDS011;24079;51.824;4.682;2023-09-19T02:11:02;21.88;;;3.28;;
37997;SDS011;24079;51.824;4.682;2023-09-19T02:13:28;23.08;;;3.42;;
37997;SDS011;24079;51.824;4.682;2023-09-19T02:15:57;16.25;;;3.38;;
37997;SDS011;24079;51.824;4.682;2023-09-19T02:18:24;16.75;;;3.13;;
37997;SDS011;24079;51.824;4.682;2023-09-19T02:20:53;19.63;;;3.55;;
37997;SDS011;24079;51.824;4.682;2023-09-19T02:23:19;18.38;;;3.17;;
37997;SDS011;24079;51.824;4.682;2023-09-19T02:25:55;18.55;;;3.38;;
37997;SDS011;24079;51.824;4.682;2023-09-19T02:28:47;16.35;;;3.53;;
37997;SDS011;24079;51.824;4.682;2023-09-19T02:31:14;10.18;;;2.72;;
37997;SDS011;24079;51.824;4.682;2023-09-19T02:33:42;15.50;;;2.83;;
37997;SDS011;24079;51.824;4.682;2023-09-19T02:36:08;21.85;;;3.42;;
37997;SDS011;24079;51.824;4.682;2023-09-19T02:38:34;17.90;;;3.22;;
37997;SDS011;24079;51.824;4.682;2023-09-19T02:41:00;20.35;;;3.13;;
37997;SDS011;24079;51.824;4.682;2023-09-19T02:43:27;19.23;;;3.70;;
37997;SDS011;24079;51.824;4.682;2023-09-19T02:45:53;16.40;;;3.42;;
37997;SDS011;24079;51.824;4.682;2023-09-19T02:48:19;17.17;;;2.95;;
37997;SDS011;24079;51.824;4.682;2023-09-19T02:50:46;17.02;;;2.70;;
37997;SDS011;24079;51.824;4.682;2023-09-19T02:53:15;17.05;;;3.45;;
37997;SDS011;24079;51.824;4.682;2023-09-19T02:55:41;14.57;;;3.10;;
37997;SDS011;24079;51.824;4.682;2023-09-19T02:58:08;14.32;;;3.20;;
37997;SDS011;24079;51.824;4.682;2023-09-19T03:00:36;17.10;;;3.00;;
37997;SDS011;24079;51.824;4.682;2023-09-19T03:03:03;15.98;;;2.60;;
37997;SDS011;24079;51.824;4.682;2023-09-19T03:05:31;13.20;;;3.08;;
37997;SDS011;24079;51.824;4.682;2023-09-19T03:07:57;20.33;;;3.05;;
37997;SDS011;24079;51.824;4.682;2023-09-19T03:10:25;22.40;;;3.38;;
37997;SDS011;24079;51.824;4.682;2023-09-19T03:12:52;16.23;;;3.30;;
37997;SDS011;24079;51.824;4.682;2023-09-19T03:15:18;17.27;;;2.97;;
37997;SDS011;24079;51.824;4.682;2023-09-19T03:17:44;14.63;;;2.72;;
37997;SDS011;24079;51.824;4.682;2023-09-19T03:20:13;23.13;;;3.25;;
37997;SDS011;24079;51.824;4.682;2023-09-19T03:22:43;11.93;;;2.88;;
37997;SDS011;24079;51.824;4.682;2023-09-19T03:25:09;13.35;;;3.42;;
37997;SDS011;24079;51.824;4.682;2023-09-19T03:27:37;16.83;;;3.60;;
37997;SDS011;24079;51.824;4.682;2023-09-19T03:30:04;20.10;;;2.95;;
37997;SDS011;24079;51.824;4.682;2023-09-19T03:32:37;16.35;;;2.97;;
37997;SDS011;24079;51.824;4.682;2023-09-19T03:35:10;18.60;;;3.10;;
37997;SDS011;24079;51.824;4.682;2023-09-19T03:37:40;16.55;;;3.13;;
37997;SDS011;24079;51.824;4.682;2023-09-19T03:40:07;19.80;;;3.75;;
37997;SDS011;24079;51.824;4.682;2023-09-19T03:42:39;17.38;;;3.72;;
37997;SDS011;24079;51.824;4.682;2023-09-19T03:45:06;18.90;;;3.10;;
37997;SDS011;24079;51.824;4.682;2023-09-19T03:47:38;14.77;;;3.10;;
37997;SDS011;24079;51.824;4.682;2023-09-19T03:50:05;12.77;;;3.17;;
37997;SDS011;24079;51.824;4.682;2023-09-19T03:52:36;16.17;;;2.85;;
37997;SDS011;24079;51.824;4.682;2023-09-19T03:55:02;18.23;;;2.80;;
37997;SDS011;24079;51.824;4.682;2023-09-19T03:57:32;15.95;;;2.92;;
37997;SDS011;24079;51.824;4.682;2023-09-19T03:59:59;19.55;;;3.63;;
37997;SDS011;24079;51.824;4.682;2023-09-19T04:02:25;19.63;;;3.85;;
37997;SDS011;24079;51.824;4.682;2023-09-19T04:04:58;13.65;;;2.92;;
37997;SDS011;24079;51.824;4.682;2023-09-19T04:07:24;14.35;;;3.15;;
37997;SDS011;24079;51.824;4.682;2023-09-19T04:09:54;16.17;;;2.67;;
37997;SDS011;24079;51.824;4.682;2023-09-19T04:12:20;14.07;;;3.72;;
37997;SDS011;24079;51.824;4.682;2023-09-19T04:14:46;17.65;;;3.20;;
37997;SDS011;24079;51.824;4.682;2023-09-19T04:17:13;15.75;;;3.10;;
37997;SDS011;24079;51.824;4.682;2023-09-19T04:19:39;15.15;;;3.30;;
37997;SDS011;24079;51.824;4.682;2023-09-19T04:22:06;23.40;;;3.08;;
37997;SDS011;24079;51.824;4.682;2023-09-19T04:24:32;21.15;;;3.17;;
37997;SDS011;24079;51.824;4.682;2023-09-19T04:26:59;18.77;;;3.75;;
37997;SDS011;24079;51.824;4.682;2023-09-19T04:29:25;13.10;;;2.75;;
37997;SDS011;24079;51.824;4.682;2023-09-19T04:31:55;14.95;;;2.80;;
37997;SDS011;24079;51.824;4.682;2023-09-19T04:34:24;20.17;;;3.17;;
37997;SDS011;24079;51.824;4.682;2023-09-19T04:36:51;17.15;;;3.10;;
37997;SDS011;24079;51.824;4.682;2023-09-19T04:39:18;19.88;;;3.10;;
37997;SDS011;24079;51.824;4.682;2023-09-19T04:41:44;14.93;;;3.15;;
37997;SDS011;24079;51.824;4.682;2023-09-19T04:44:11;15.50;;;2.88;;
37997;SDS011;24079;51.824;4.682;2023-09-19T04:46:39;13.77;;;2.85;;
37997;SDS011;24079;51.824;4.682;2023-09-19T04:49:05;18.63;;;3.47;;
37997;SDS011;24079;51.824;4.682;2023-09-19T04:51:31;18.67;;;3.03;;
37997;SDS011;24079;51.824;4.682;2023-09-19T04:53:59;18.33;;;3.58;;
37997;SDS011;24079;51.824;4.682;2023-09-19T04:56:26;13.23;;;3.08;;
37997;SDS011;24079;51.824;4.682;2023-09-19T04:58:54;25.38;;;3.78;;
37997;SDS011;24079;51.824;4.682;2023-09-19T05:01:20;16.83;;;3.38;;
37997;SDS011;24079;51.824;4.682;2023-09-19T05:03:48;15.95;;;2.92;;
37997;SDS011;24079;51.824;4.682;2023-09-19T05:06:20;23.30;;;3.80;;
37997;SDS011;24079;51.824;4.682;2023-09-19T05:08:47;24.75;;;3.97;;
37997;SDS011;24079;51.824;4.682;2023-09-19T05:11:18;15.48;;;3.20;;
37997;SDS011;24079;51.824;4.682;2023-09-19T05:13:45;12.63;;;3.15;;
37997;SDS011;24079;51.824;4.682;2023-09-19T05:16:11;22.10;;;4.15;;
37997;SDS011;24079;51.824;4.682;2023-09-19T05:18:37;16.25;;;3.53;;
37997;SDS011;24079;51.824;4.682;2023-09-19T05:21:03;16.75;;;3.10;;
37997;SDS011;24079;51.824;4.682;2023-09-19T05:23:29;19.77;;;3.60;;
37997;SDS011;24079;51.824;4.682;2023-09-19T05:25:56;18.08;;;3.20;;
37997;SDS011;24079;51.824;4.682;2023-09-19T05:28:23;16.45;;;3.60;;
37997;SDS011;24079;51.824;4.682;2023-09-19T05:30:49;18.25;;;3.28;;
37997;SDS011;24079;51.824;4.682;2023-09-19T05:33:15;16.65;;;3.50;;
37997;SDS011;24079;51.824;4.682;2023-09-19T05:35:40;20.70;;;3.65;;
37997;SDS011;24079;51.824;4.682;2023-09-19T05:38:06;17.85;;;3.75;;
37997;SDS011;24079;51.824;4.682;2023-09-19T05:40:34;20.98;;;3.92;;
37997;SDS011;24079;51.824;4.682;2023-09-19T05:43:00;19.85;;;3.70;;
37997;SDS011;24079;51.824;4.682;2023-09-19T05:45:28;18.55;;;4.07;;
37997;SDS011;24079;51.824;4.682;2023-09-19T05:47:54;17.08;;;4.00;;
37997;SDS011;24079;51.824;4.682;2023-09-19T05:50:29;16.23;;;3.72;;
37997;SDS011;24079;51.824;4.682;2023-09-19T05:52:56;24.33;;;4.13;;
37997;SDS011;24079;51.824;4.682;2023-09-19T05:55:21;21.85;;;3.50;;
37997;SDS011;24079;51.824;4.682;2023-09-19T05:57:50;17.17;;;3.17;;
37997;SDS011;24079;51.824;4.682;2023-09-19T06:00:20;18.98;;;4.95;;
37997;SDS011;24079;51.824;4.682;2023-09-19T06:02:53;21.45;;;3.20;;
37997;SDS011;24079;51.824;4.682;2023-09-19T06:05:20;16.45;;;3.60;;
37997;SDS011;24079;51.824;4.682;2023-09-19T06:07:46;16.60;;;4.03;;
37997;SDS011;24079;51.824;4.682;2023-09-19T06:10:12;19.00;;;3.40;;
37997;SDS011;24079;51.824;4.682;2023-09-19T06:12:39;20.27;;;3.60;;
37997;SDS011;24079;51.824;4.682;2023-09-19T06:15:08;17.90;;;3.03;;
37997;SDS011;24079;51.824;4.682;2023-09-19T06:17:37;18.60;;;3.90;;
37997;SDS011;24079;51.824;4.682;2023-09-19T06:20:05;20.70;;;3.65;;
37997;SDS011;24079;51.824;4.682;2023-09-19T06:22:37;20.83;;;3.92;;
37997;SDS011;24079;51.824;4.682;2023-09-19T06:25:03;22.52;;;5.10;;
37997;SDS011;24079;51.824;4.682;2023-09-19T06:27:30;20.67;;;4.03;;
37997;SDS011;24079;51.824;4.682;2023-09-19T06:29:56;22.92;;;3.83;;
37997;SDS011;24079;51.824;4.682;2023-09-19T06:32:26;19.67;;;3.53;;
37997;SDS011;24079;51.824;4.682;2023-09-19T06:34:53;20.77;;;3.50;;
37997;SDS011;24079;51.824;4.682;2023-09-19T06:37:26;23.87;;;3.57;;
37997;SDS011;24079;51.824;4.682;2023-09-19T06:39:53;19.40;;;3.63;;
37997;SDS011;24079;51.824;4.682;2023-09-19T06:42:19;18.27;;;3.65;;
37997;SDS011;24079;51.824;4.682;2023-09-19T06:44:45;16.17;;;3.58;;
37997;SDS011;24079;51.824;4.682;2023-09-19T06:47:11;21.65;;;3.40;;
37997;SDS011;24079;51.824;4.682;2023-09-19T06:49:37;19.55;;;3.63;;
37997;SDS011;24079;51.824;4.682;2023-09-19T06:52:03;20.45;;;3.97;;
37997;SDS011;24079;51.824;4.682;2023-09-19T06:54:30;23.65;;;3.85;;
37997;SDS011;24079;51.824;4.682;2023-09-19T06:56:57;22.92;;;4.40;;
37997;SDS011;24079;51.824;4.682;2023-09-19T06:59:42;19.90;;;4.10;;
37997;SDS011;24079;51.824;4.682;2023-09-19T07:02:10;21.38;;;4.00;;
37997;SDS011;24079;51.824;4.682;2023-09-19T07:04:36;18.15;;;3.22;;
37997;SDS011;24079;51.824;4.682;2023-09-19T07:07:02;24.63;;;4.43;;
37997;SDS011;24079;51.824;4.682;2023-09-19T07:09:29;19.85;;;4.25;;
37997;SDS011;24079;51.824;4.682;2023-09-19T07:11:55;24.15;;;3.95;;
37997;SDS011;24079;51.824;4.682;2023-09-19T07:14:21;18.70;;;3.72;;
37997;SDS011;24079;51.824;4.682;2023-09-19T07:16:47;17.02;;;3.97;;
37997;SDS011;24079;51.824;4.682;2023-09-19T07:19:14;25.52;;;4.07;;
37997;SDS011;24079;51.824;4.682;2023-09-19T07:21:40;23.05;;;4.18;;
37997;SDS011;24079;51.824;4.682;2023-09-19T07:24:07;24.77;;;4.47;;
37997;SDS011;24079;51.824;4.682;2023-09-19T07:26:34;21.20;;;4.13;;
37997;SDS011;24079;51.824;4.682;2023-09-19T07:29:00;24.20;;;4.32;;
37997;SDS011;24079;51.824;4.682;2023-09-19T07:31:29;15.70;;;3.25;;
37997;SDS011;24079;51.824;4.682;2023-09-19T07:33:56;15.73;;;3.20;;
37997;SDS011;24079;51.824;4.682;2023-09-19T07:36:22;18.80;;;3.88;;
37997;SDS011;24079;51.824;4.682;2023-09-19T07:38:49;21.55;;;4.07;;
37997;SDS011;24079;51.824;4.682;2023-09-19T07:41:16;18.48;;;3.88;;
37997;SDS011;24079;51.824;4.682;2023-09-19T07:43:41;20.30;;;3.70;;
37997;SDS011;24079;51.824;4.682;2023-09-19T07:46:08;26.95;;;4.78;;
37997;SDS011;24079;51.824;4.682;2023-09-19T07:48:35;25.92;;;3.50;;
37997;SDS011;24079;51.824;4.682;2023-09-19T07:51:07;16.92;;;3.28;;
37997;SDS011;24079;51.824;4.682;2023-09-19T07:53:35;22.23;;;4.65;;
37997;SDS011;24079;51.824;4.682;2023-09-19T07:56:01;23.88;;;3.88;;
37997;SDS011;24079;51.824;4.682;2023-09-19T07:58:31;26.00;;;4.45;;
37997;SDS011;24079;51.824;4.682;2023-09-19T08:01:02;19.35;;;3.35;;
37997;SDS011;24079;51.824;4.682;2023-09-19T08:03:38;17.17;;;3.25;;
37997;SDS011;24079;51.824;4.682;2023-09-19T08:06:08;22.38;;;3.60;;
37997;SDS011;24079;51.824;4.682;2023-09-19T08:08:35;24.30;;;4.47;;
37997;SDS011;24079;51.824;4.682;2023-09-19T08:11:05;15.32;;;3.60;;
37997;SDS011;24079;51.824;4.682;2023-09-19T08:13:38;16.55;;;3.70;;
37997;SDS011;24079;51.824;4.682;2023-09-19T08:16:09;25.83;;;4.28;;
37997;SDS011;24079;51.824;4.682;2023-09-19T08:18:36;18.48;;;3.58;;
37997;SDS011;24079;51.824;4.682;2023-09-19T08:21:05;18.58;;;3.90;;
37997;SDS011;24079;51.824;4.682;2023-09-19T08:23:36;14.02;;;3.50;;
37997;SDS011;24079;51.824;4.682;2023-09-19T08:26:04;17.13;;;3.17;;
37997;SDS011;24079;51.824;4.682;2023-09-19T08:28:33;20.20;;;3.80;;
37997;SDS011;24079;51.824;4.682;2023-09-19T08:31:05;16.08;;;3.72;;
37997;SDS011;24079;51.824;4.682;2023-09-19T08:33:32;23.35;;;3.42;;
37997;SDS011;24079;51.824;4.682;2023-09-19T08:35:58;19.88;;;3.92;;
37997;SDS011;24079;51.824;4.682;2023-09-19T08:38:25;20.08;;;3.38;;
37997;SDS011;24079;51.824;4.682;2023-09-19T08:41:11;23.55;;;4.28;;
37997;SDS011;24079;51.824;4.682;2023-09-19T08:43:37;16.15;;;3.63;;
37997;SDS011;24079;51.824;4.682;2023-09-19T08:46:16;17.30;;;3.30;;
37997;SDS011;24079;51.824;4.682;2023-09-19T08:48:54;16.58;;;3.65;;
37997;SDS011;24079;51.824;4.682;2023-09-19T08:51:33;22.15;;;3.85;;
37997;SDS011;24079;51.824;4.682;2023-09-19T08:54:22;23.50;;;3.60;;
37997;SDS011;24079;51.824;4.682;2023-09-19T08:56:54;26.98;;;4.75;;
37997;SDS011;24079;51.824;4.682;2023-09-19T08:59:22;29.10;;;4.65;;
37997;SDS011;24079;51.824;4.682;2023-09-19T09:01:52;25.42;;;4.28;;
37997;SDS011;24079;51.824;4.682;2023-09-19T09:04:19;24.52;;;4.13;;
37997;SDS011;24079;51.824;4.682;2023-09-19T09:06:45;19.40;;;3.78;;
37997;SDS011;24079;51.824;4.682;2023-09-19T09:09:18;14.07;;;2.97;;
37997;SDS011;24079;51.824;4.682;2023-09-19T09:11:44;22.92;;;3.83;;
37997;SDS011;24079;51.824;4.682;2023-09-19T09:14:28;19.60;;;3.53;;
37997;SDS011;24079;51.824;4.682;2023-09-19T09:16:55;21.08;;;3.75;;
37997;SDS011;24079;51.824;4.682;2023-09-19T09:19:24;21.77;;;3.65;;
37997;SDS011;24079;51.824;4.682;2023-09-19T09:21:50;23.52;;;3.55;;
37997;SDS011;24079;51.824;4.682;2023-09-19T09:24:26;16.70;;;3.75;;
37997;SDS011;24079;51.824;4.682;2023-09-19T09:26:56;18.77;;;3.70;;
37997;SDS011;24079;51.824;4.682;2023-09-19T09:32:17;23.92;;;3.90;;
37997;SDS011;24079;51.824;4.682;2023-09-19T09:34:45;20.40;;;3.25;;
37997;SDS011;24079;51.824;4.682;2023-09-19T09:37:14;20.52;;;3.72;;
37997;SDS011;24079;51.824;4.682;2023-09-19T09:39:48;21.88;;;3.63;;
37997;SDS011;24079;51.824;4.682;2023-09-19T09:42:29;15.70;;;3.05;;
37997;SDS011;24079;51.824;4.682;2023-09-19T09:47:53;12.07;;;3.05;;
37997;SDS011;24079;51.824;4.682;2023-09-19T09:50:28;18.50;;;3.38;;
37997;SDS011;24079;51.824;4.682;2023-09-19T09:53:04;18.13;;;3.30;;
37997;SDS011;24079;51.824;4.682;2023-09-19T09:56:26;18.00;;;3.28;;
37997;SDS011;24079;51.824;4.682;2023-09-19T10:01:13;10.65;;;2.22;;
37997;SDS011;24079;51.824;4.682;2023-09-19T10:03:41;14.00;;;2.92;;
37997;SDS011;24079;51.824;4.682;2023-09-19T10:06:16;14.45;;;3.03;;
37997;SDS011;24079;51.824;4.682;2023-09-19T10:08:58;16.67;;;3.05;;
37997;SDS011;24079;51.824;4.682;2023-09-19T10:11:47;15.38;;;2.67;;
37997;SDS011;24079;51.824;4.682;2023-09-19T10:14:33;19.63;;;3.42;;
37997;SDS011;24079;51.824;4.682;2023-09-19T10:17:22;14.82;;;3.00;;
37997;SDS011;24079;51.824;4.682;2023-09-19T10:20:10;17.00;;;2.88;;
37997;SDS011;24079;51.824;4.682;2023-09-19T10:23:07;15.00;;;2.97;;
37997;SDS011;24079;51.824;4.682;2023-09-19T10:25:54;17.63;;;3.38;;
37997;SDS011;24079;51.824;4.682;2023-09-19T10:28:41;13.82;;;2.60;;
37997;SDS011;24079;51.824;4.682;2023-09-19T10:31:27;13.90;;;3.08;;
37997;SDS011;24079;51.824;4.682;2023-09-19T10:34:14;15.23;;;2.53;;
37997;SDS011;24079;51.824;4.682;2023-09-19T10:37:00;12.70;;;3.13;;
37997;SDS011;24079;51.824;4.682;2023-09-19T10:39:47;14.50;;;2.40;;
37997;SDS011;24079;51.824;4.682;2023-09-19T10:42:34;15.38;;;2.75;;
37997;SDS011;24079;51.824;4.682;2023-09-19T10:45:23;16.05;;;2.35;;
37997;SDS011;24079;51.824;4.682;2023-09-19T10:48:09;9.23;;;2.15;;
37997;SDS011;24079;51.824;4.682;2023-09-19T10:54:22;9.77;;;2.40;;
37997;SDS011;24079;51.824;4.682;2023-09-19T10:57:05;16.08;;;2.67;;
37997;SDS011;24079;51.824;4.682;2023-09-19T11:00:04;7.47;;;1.98;;
37997;SDS011;24079;51.824;4.682;2023-09-19T11:09:03;9.38;;;2.50;;
37997;SDS011;24079;51.824;4.682;2023-09-19T11:11:50;10.68;;;1.92;;
37997;SDS011;24079;51.824;4.682;2023-09-19T11:14:39;10.43;;;2.55;;
37997;SDS011;24079;51.824;4.682;2023-09-19T11:17:35;11.82;;;2.10;;
37997;SDS011;24079;51.824;4.682;2023-09-19T11:20:22;13.20;;;2.35;;
37997;SDS011;24079;51.824;4.682;2023-09-19T11:30:38;11.00;;;2.85;;
37997;SDS011;24079;51.824;4.682;2023-09-19T11:46:32;7.45;;;1.98;;
37997;SDS011;24079;51.824;4.682;2023-09-19T11:49:05;11.15;;;2.55;;
37997;SDS011;24079;51.824;4.682;2023-09-19T11:51:47;9.07;;;1.95;;
37997;SDS011;24079;51.824;4.682;2023-09-19T11:54:17;14.35;;;3.20;;
37997;SDS011;24079;51.824;4.682;2023-09-19T11:56:50;9.10;;;2.50;;
37997;SDS011;24079;51.824;4.682;2023-09-19T11:59:19;10.93;;;2.22;;
37997;SDS011;24079;51.824;4.682;2023-09-19T12:01:54;15.18;;;2.35;;
37997;SDS011;24079;51.824;4.682;2023-09-19T12:04:40;11.25;;;2.15;;
37997;SDS011;24079;51.824;4.682;2023-09-19T12:07:11;9.82;;;2.03;;
37997;SDS011;24079;51.824;4.682;2023-09-19T12:09:44;12.48;;;2.60;;
37997;SDS011;24079;51.824;4.682;2023-09-19T12:12:20;9.73;;;2.00;;
37997;SDS011;24079;51.824;4.682;2023-09-19T12:14:53;12.00;;;2.20;;
37997;SDS011;24079;51.824;4.682;2023-09-19T12:17:20;10.93;;;2.00;;
37997;SDS011;24079;51.824;4.682;2023-09-19T12:19:50;14.52;;;2.10;;
37997;SDS011;24079;51.824;4.682;2023-09-19T12:22:17;10.00;;;2.40;;
37997;SDS011;24079;51.824;4.682;2023-09-19T12:24:45;10.82;;;1.88;;
37997;SDS011;24079;51.824;4.682;2023-09-19T12:27:12;10.55;;;1.70;;
37997;SDS011;24079;51.824;4.682;2023-09-19T12:32:14;8.13;;;1.70;;
37997;SDS011;24079;51.824;4.682;2023-09-19T12:34:42;7.07;;;1.50;;
37997;SDS011;24079;51.824;4.682;2023-09-19T12:37:15;10.73;;;1.55;;
37997;SDS011;24079;51.824;4.682;2023-09-19T12:39:46;5.80;;;1.50;;
37997;SDS011;24079;51.824;4.682;2023-09-19T12:42:19;12.27;;;2.33;;
37997;SDS011;24079;51.824;4.682;2023-09-19T12:44:51;7.80;;;1.42;;
37997;SDS011;24079;51.824;4.682;2023-09-19T12:47:22;8.18;;;1.35;;
37997;SDS011;24079;51.824;4.682;2023-09-19T12:50:08;7.45;;;1.73;;
37997;SDS011;24079;51.824;4.682;2023-09-19T12:52:39;11.13;;;1.60;;
37997;SDS011;24079;51.824;4.682;2023-09-19T12:55:06;15.35;;;2.15;;
37997;SDS011;24079;51.824;4.682;2023-09-19T12:57:34;18.92;;;1.50;;
37997;SDS011;24079;51.824;4.682;2023-09-19T13:00:04;8.13;;;2.17;;
37997;SDS011;24079;51.824;4.682;2023-09-19T13:02:37;11.13;;;2.60;;
37997;SDS011;24079;51.824;4.682;2023-09-19T13:05:03;11.10;;;2.03;;
37997;SDS011;24079;51.824;4.682;2023-09-19T13:07:44;8.57;;;1.85;;
37997;SDS011;24079;51.824;4.682;2023-09-19T13:10:15;6.82;;;1.42;;
37997;SDS011;24079;51.824;4.682;2023-09-19T13:12:42;6.68;;;1.60;;
37997;SDS011;24079;51.824;4.682;2023-09-19T13:15:13;8.55;;;1.90;;
37997;SDS011;24079;51.824;4.682;2023-09-19T13:17:50;8.55;;;1.80;;
37997;SDS011;24079;51.824;4.682;2023-09-19T13:20:36;10.60;;;2.15;;
37997;SDS011;24079;51.824;4.682;2023-09-19T13:23:28;10.73;;;1.98;;
37997;SDS011;24079;51.824;4.682;2023-09-19T13:26:13;10.13;;;2.13;;
37997;SDS011;24079;51.824;4.682;2023-09-19T13:28:59;7.68;;;2.17;;
37997;SDS011;24079;51.824;4.682;2023-09-19T13:31:24;10.82;;;2.35;;
37997;SDS011;24079;51.824;4.682;2023-09-19T13:33:50;9.38;;;2.60;;
37997;SDS011;24079;51.824;4.682;2023-09-19T13:36:17;7.90;;;2.17;;
37997;SDS011;24079;51.824;4.682;2023-09-19T13:38:44;14.13;;;2.30;;
37997;SDS011;24079;51.824;4.682;2023-09-19T13:41:10;7.55;;;2.10;;
37997;SDS011;24079;51.824;4.682;2023-09-19T13:43:37;9.57;;;2.75;;
37997;SDS011;24079;51.824;4.682;2023-09-19T13:46:04;11.57;;;2.40;;
37997;SDS011;24079;51.824;4.682;2023-09-19T13:48:33;11.32;;;2.35;;
37997;SDS011;24079;51.824;4.682;2023-09-19T13:51:03;10.05;;;2.30;;
37997;SDS011;24079;51.824;4.682;2023-09-19T13:53:29;14.05;;;2.75;;
37997;SDS011;24079;51.824;4.682;2023-09-19T13:55:55;13.63;;;2.35;;
37997;SDS011;24079;51.824;4.682;2023-09-19T13:58:22;11.60;;;2.40;;
37997;SDS011;24079;51.824;4.682;2023-09-19T14:00:52;9.13;;;2.53;;
37997;SDS011;24079;51.824;4.682;2023-09-19T14:03:20;12.30;;;2.60;;
37997;SDS011;24079;51.824;4.682;2023-09-19T14:05:47;12.02;;;2.80;;
37997;SDS011;24079;51.824;4.682;2023-09-19T14:08:13;12.82;;;2.88;;
37997;SDS011;24079;51.824;4.682;2023-09-19T14:10:39;10.30;;;2.67;;
37997;SDS011;24079;51.824;4.682;2023-09-19T14:13:05;11.10;;;2.50;;
37997;SDS011;24079;51.824;4.682;2023-09-19T14:15:31;9.93;;;2.65;;
37997;SDS011;24079;51.824;4.682;2023-09-19T14:17:59;13.02;;;2.65;;
37997;SDS011;24079;51.824;4.682;2023-09-19T14:20:25;12.00;;;2.90;;
37997;SDS011;24079;51.824;4.682;2023-09-19T14:22:52;13.00;;;2.47;;
37997;SDS011;24079;51.824;4.682;2023-09-19T14:25:18;13.40;;;3.30;;
37997;SDS011;24079;51.824;4.682;2023-09-19T14:27:44;13.55;;;2.88;;
37997;SDS011;24079;51.824;4.682;2023-09-19T14:30:12;12.18;;;2.40;;
37997;SDS011;24079;51.824;4.682;2023-09-19T14:32:39;12.48;;;2.55;;
37997;SDS011;24079;51.824;4.682;2023-09-19T14:35:06;13.30;;;2.83;;
37997;SDS011;24079;51.824;4.682;2023-09-19T14:37:32;9.80;;;2.60;;
37997;SDS011;24079;51.824;4.682;2023-09-19T14:39:58;12.48;;;3.45;;
37997;SDS011;24079;51.824;4.682;2023-09-19T14:42:25;11.77;;;2.33;;
37997;SDS011;24079;51.824;4.682;2023-09-19T14:44:51;11.48;;;2.83;;
37997;SDS011;24079;51.824;4.682;2023-09-19T14:47:16;11.60;;;2.53;;
37997;SDS011;24079;51.824;4.682;2023-09-19T14:49:42;8.57;;;2.35;;
37997;SDS011;24079;51.824;4.682;2023-09-19T14:52:08;16.52;;;2.53;;
37997;SDS011;24079;51.824;4.682;2023-09-19T14:54:35;14.18;;;2.50;;
37997;SDS011;24079;51.824;4.682;2023-09-19T14:57:03;15.40;;;2.83;;
37997;SDS011;24079;51.824;4.682;2023-09-19T14:59:30;10.35;;;2.30;;
37997;SDS011;24079;51.824;4.682;2023-09-19T15:01:57;12.00;;;2.67;;
37997;SDS011;24079;51.824;4.682;2023-09-19T15:04:24;14.40;;;2.47;;
37997;SDS011;24079;51.824;4.682;2023-09-19T15:06:50;13.45;;;2.88;;
37997;SDS011;24079;51.824;4.682;2023-09-19T15:09:21;12.98;;;2.70;;
37997;SDS011;24079;51.824;4.682;2023-09-19T15:12:09;10.68;;;2.60;;
37997;SDS011;24079;51.824;4.682;2023-09-19T15:14:39;8.18;;;2.30;;
37997;SDS011;24079;51.824;4.682;2023-09-19T15:17:06;13.32;;;2.85;;
37997;SDS011;24079;51.824;4.682;2023-09-19T15:19:31;18.83;;;3.00;;
37997;SDS011;24079;51.824;4.682;2023-09-19T15:21:57;10.63;;;2.67;;
37997;SDS011;24079;51.824;4.682;2023-09-19T15:24:23;10.20;;;2.42;;
37997;SDS011;24079;51.824;4.682;2023-09-19T15:26:52;13.48;;;3.38;;
37997;SDS011;24079;51.824;4.682;2023-09-19T15:29:20;14.43;;;3.00;;
37997;SDS011;24079;51.824;4.682;2023-09-19T15:31:46;11.02;;;2.70;;
37997;SDS011;24079;51.824;4.682;2023-09-19T15:34:12;15.73;;;3.67;;
37997;SDS011;24079;51.824;4.682;2023-09-19T15:36:41;17.05;;;2.83;;
37997;SDS011;24079;51.824;4.682;2023-09-19T15:39:07;15.95;;;2.70;;
37997;SDS011;24079;51.824;4.682;2023-09-19T15:41:39;12.25;;;2.35;;
37997;SDS011;24079;51.824;4.682;2023-09-19T15:44:12;8.93;;;2.40;;
37997;SDS011;24079;51.824;4.682;2023-09-19T15:46:39;12.60;;;2.40;;
37997;SDS011;24079;51.824;4.682;2023-09-19T15:49:06;13.02;;;2.83;;
37997;SDS011;24079;51.824;4.682;2023-09-19T15:51:33;8.52;;;2.47;;
37997;SDS011;24079;51.824;4.682;2023-09-19T15:54:01;12.77;;;2.58;;
37997;SDS011;24079;51.824;4.682;2023-09-19T15:56:34;17.17;;;3.00;;
37997;SDS011;24079;51.824;4.682;2023-09-19T15:59:03;8.98;;;2.72;;